首页
METAR-TAF:

METAR-TAF

机场 :

拉瓜地亞機場

纽约 / 拉瓜地亞, 紐約州, 美国

纬度: 40-46-45N, 经度: 073-52-48W, 海拔: 6米

当前天气观测

该预报发布于28分钟前的04:51 UTC
风速6节,风向西
温度 9°C
湿度 40%
气压 1027 hPa
能見度: 16.1公里
天空无云

METAR: KLGA 190451Z 27006KT 10SM CLR 09/M04 A3033 RMK AO2 SLP270 T00891039 401170067

时间: 01:19 (05:19 UTC)

预报

该预报发布于2小时和36分钟前的02:43 UTC
预报有效从19日的 03点(UTC)到 20日的 06点(UTC)
风速9节,风向西北
能見度: 10公里
天空无云
从 19日的 0700点(UTC)
风速7节,风向西
能見度: 10公里
天空无云
从 19日的 0900点(UTC)
风速7节,风向西
能見度: 10公里
天空无云
从 19日的 1200点(UTC)
风速9节,风向西转西南
能見度: 10公里
天空无云
从 19日的 1700点(UTC)
风速11节,风向西转西南,有时为18节阵风
能見度: 10公里
天空无云
从 19日的 1900点(UTC)
风速12节,风向西南,有时为19节阵风
能見度: 10公里
少量云层高于25000英尺
从 20日的 0000点(UTC)
风速13节,风向西南
能見度: 10公里
多云层高于25000英尺

TAF: KLGA 190243Z 1903/2006 31009KT P6SM SKC FM190700 28007KT P6SM SKC FM190900 26007KT P6SM SKC FM191200 24009KT P6SM SKC FM191700 24011G18KT P6SM SKC FM191900 22012G19KT P6SM FEW250 FM200000 22013KT P6SM BKN250

超过4000个机场的气象观测和天气预报(METAR&TAF报告)。

可查询的气象台以黄色和红色小点在地图上表示。

将鼠标移到小点上方,可查看气象台名称。

然后点击查看天气观测和预报。

如需切换地图:点击带黑十字的绿色按钮放大地图;点击带横线的绿色按钮缩小地图;或者点击绿色箭头查看邻近地区的地图。


METAR-TAF: